sensor_id;sensor_type;location;lat;lon;timestamp;P1;durP1;ratioP1;P2;durP2;ratioP2
35847;SDS011;22332;51.954;20.118;2023-04-24T00:02:46;18.90;;;11.90;;
35847;SDS011;22332;51.954;20.118;2023-04-24T00:05:51;23.30;;;12.60;;
35847;SDS011;22332;51.954;20.118;2023-04-24T00:08:57;17.00;;;10.20;;
35847;SDS011;22332;51.954;20.118;2023-04-24T00:12:02;19.00;;;11.20;;
35847;SDS011;22332;51.954;20.118;2023-04-24T00:15:09;17.70;;;11.30;;
35847;SDS011;22332;51.954;20.118;2023-04-24T00:18:15;17.40;;;10.80;;
35847;SDS011;22332;51.954;20.118;2023-04-24T00:21:21;17.70;;;10.00;;
35847;SDS011;22332;51.954;20.118;2023-04-24T00:24:28;20.30;;;12.60;;
35847;SDS011;22332;51.954;20.118;2023-04-24T00:27:33;68.90;;;39.40;;
35847;SDS011;22332;51.954;20.118;2023-04-24T00:30:39;52.60;;;32.00;;
35847;SDS011;22332;51.954;20.118;2023-04-24T00:33:45;24.50;;;15.10;;
35847;SDS011;22332;51.954;20.118;2023-04-24T00:36:50;18.10;;;13.20;;
35847;SDS011;22332;51.954;20.118;2023-04-24T00:39:56;17.00;;;12.00;;
35847;SDS011;22332;51.954;20.118;2023-04-24T00:43:01;18.20;;;11.80;;
35847;SDS011;22332;51.954;20.118;2023-04-24T00:46:07;15.60;;;11.40;;
35847;SDS011;22332;51.954;20.118;2023-04-24T00:49:14;15.90;;;11.00;;
35847;SDS011;22332;51.954;20.118;2023-04-24T00:52:19;16.10;;;11.00;;
35847;SDS011;22332;51.954;20.118;2023-04-24T00:55:27;15.20;;;11.20;;
35847;SDS011;22332;51.954;20.118;2023-04-24T00:58:32;16.50;;;12.00;;
35847;SDS011;22332;51.954;20.118;2023-04-24T01:01:38;18.80;;;12.00;;
35847;SDS011;22332;51.954;20.118;2023-04-24T01:04:45;15.20;;;11.50;;
35847;SDS011;22332;51.954;20.118;2023-04-24T01:07:51;14.80;;;10.70;;
35847;SDS011;22332;51.954;20.118;2023-04-24T01:10:58;14.50;;;10.90;;
35847;SDS011;22332;51.954;20.118;2023-04-24T01:14:04;14.60;;;10.00;;
35847;SDS011;22332;51.954;20.118;2023-04-24T01:17:10;13.40;;;8.50;;
35847;SDS011;22332;51.954;20.118;2023-04-24T01:20:15;16.90;;;10.80;;
35847;SDS011;22332;51.954;20.118;2023-04-24T01:23:23;15.40;;;11.10;;
35847;SDS011;22332;51.954;20.118;2023-04-24T01:26:29;14.50;;;10.70;;
35847;SDS011;22332;51.954;20.118;2023-04-24T01:29:35;14.80;;;10.20;;
35847;SDS011;22332;51.954;20.118;2023-04-24T01:32:40;16.70;;;10.80;;
35847;SDS011;22332;51.954;20.118;2023-04-24T01:35:48;16.00;;;11.30;;
35847;SDS011;22332;51.954;20.118;2023-04-24T01:38:54;17.10;;;11.50;;
35847;SDS011;22332;51.954;20.118;2023-04-24T01:42:02;17.60;;;11.20;;
35847;SDS011;22332;51.954;20.118;2023-04-24T01:45:10;15.00;;;11.50;;
35847;SDS011;22332;51.954;20.118;2023-04-24T01:48:16;17.10;;;12.00;;
35847;SDS011;22332;51.954;20.118;2023-04-24T01:51:22;15.60;;;12.00;;
35847;SDS011;22332;51.954;20.118;2023-04-24T01:54:28;17.90;;;12.20;;
35847;SDS011;22332;51.954;20.118;2023-04-24T01:57:34;17.40;;;12.50;;
35847;SDS011;22332;51.954;20.118;2023-04-24T02:00:40;15.10;;;11.50;;
35847;SDS011;22332;51.954;20.118;2023-04-24T02:03:45;16.50;;;11.60;;
35847;SDS011;22332;51.954;20.118;2023-04-24T02:06:51;18.40;;;12.70;;
35847;SDS011;22332;51.954;20.118;2023-04-24T02:09:56;16.20;;;12.20;;
35847;SDS011;22332;51.954;20.118;2023-04-24T02:13:02;16.40;;;11.10;;
35847;SDS011;22332;51.954;20.118;2023-04-24T02:16:08;14.90;;;9.90;;
35847;SDS011;22332;51.954;20.118;2023-04-24T02:19:13;17.00;;;10.90;;
35847;SDS011;22332;51.954;20.118;2023-04-24T02:22:19;18.20;;;11.80;;
35847;SDS011;22332;51.954;20.118;2023-04-24T02:25:25;15.20;;;11.30;;
35847;SDS011;22332;51.954;20.118;2023-04-24T02:28:32;16.40;;;12.20;;
35847;SDS011;22332;51.954;20.118;2023-04-24T02:31:37;16.70;;;11.70;;
35847;SDS011;22332;51.954;20.118;2023-04-24T02:34:43;15.30;;;11.60;;
35847;SDS011;22332;51.954;20.118;2023-04-24T02:37:49;18.50;;;13.30;;
35847;SDS011;22332;51.954;20.118;2023-04-24T02:40:54;16.70;;;12.30;;
35847;SDS011;22332;51.954;20.118;2023-04-24T02:44:00;20.40;;;13.40;;
35847;SDS011;22332;51.954;20.118;2023-04-24T02:47:05;19.60;;;13.50;;
35847;SDS011;22332;51.954;20.118;2023-04-24T02:50:11;19.10;;;13.00;;
35847;SDS011;22332;51.954;20.118;2023-04-24T02:53:17;18.10;;;12.60;;
35847;SDS011;22332;51.954;20.118;2023-04-24T02:56:22;17.50;;;12.50;;
35847;SDS011;22332;51.954;20.118;2023-04-24T02:59:28;17.70;;;13.50;;
35847;SDS011;22332;51.954;20.118;2023-04-24T03:02:34;18.50;;;13.40;;
35847;SDS011;22332;51.954;20.118;2023-04-24T03:05:40;16.50;;;12.20;;
35847;SDS011;22332;51.954;20.118;2023-04-24T03:08:45;16.10;;;11.00;;
35847;SDS011;22332;51.954;20.118;2023-04-24T03:11:51;16.10;;;11.70;;
35847;SDS011;22332;51.954;20.118;2023-04-24T03:14:56;17.50;;;12.80;;
35847;SDS011;22332;51.954;20.118;2023-04-24T03:18:02;16.80;;;12.10;;
35847;SDS011;22332;51.954;20.118;2023-04-24T03:21:08;17.30;;;12.50;;
35847;SDS011;22332;51.954;20.118;2023-04-24T03:24:13;16.00;;;12.50;;
35847;SDS011;22332;51.954;20.118;2023-04-24T03:27:19;17.50;;;12.90;;
35847;SDS011;22332;51.954;20.118;2023-04-24T03:30:30;16.60;;;12.60;;
35847;SDS011;22332;51.954;20.118;2023-04-24T03:33:37;17.70;;;13.30;;
35847;SDS011;22332;51.954;20.118;2023-04-24T03:36:43;19.00;;;13.10;;
35847;SDS011;22332;51.954;20.118;2023-04-24T03:39:50;15.50;;;12.40;;
35847;SDS011;22332;51.954;20.118;2023-04-24T03:42:59;17.70;;;13.80;;
35847;SDS011;22332;51.954;20.118;2023-04-24T03:46:05;17.70;;;13.00;;
35847;SDS011;22332;51.954;20.118;2023-04-24T03:49:15;19.60;;;12.30;;
35847;SDS011;22332;51.954;20.118;2023-04-24T03:52:22;15.70;;;11.70;;
35847;SDS011;22332;51.954;20.118;2023-04-24T03:55:28;17.50;;;12.20;;
35847;SDS011;22332;51.954;20.118;2023-04-24T03:58:35;18.30;;;13.10;;
35847;SDS011;22332;51.954;20.118;2023-04-24T04:01:41;20.00;;;12.30;;
35847;SDS011;22332;51.954;20.118;2023-04-24T04:04:51;18.30;;;12.80;;
35847;SDS011;22332;51.954;20.118;2023-04-24T04:07:56;17.40;;;12.90;;
35847;SDS011;22332;51.954;20.118;2023-04-24T04:11:02;18.50;;;13.20;;
35847;SDS011;22332;51.954;20.118;2023-04-24T04:14:08;18.00;;;13.20;;
35847;SDS011;22332;51.954;20.118;2023-04-24T04:17:15;16.40;;;12.90;;
35847;SDS011;22332;51.954;20.118;2023-04-24T04:20:20;17.00;;;13.00;;
35847;SDS011;22332;51.954;20.118;2023-04-24T04:23:26;15.70;;;12.90;;
35847;SDS011;22332;51.954;20.118;2023-04-24T04:26:43;14.50;;;10.80;;
35847;SDS011;22332;51.954;20.118;2023-04-24T04:29:57;14.50;;;10.00;;
35847;SDS011;22332;51.954;20.118;2023-04-24T04:33:06;15.00;;;11.50;;
35847;SDS011;22332;51.954;20.118;2023-04-24T04:36:13;15.80;;;11.90;;
35847;SDS011;22332;51.954;20.118;2023-04-24T04:39:21;17.80;;;12.70;;
35847;SDS011;22332;51.954;20.118;2023-04-24T04:42:32;15.60;;;12.20;;
35847;SDS011;22332;51.954;20.118;2023-04-24T04:45:38;16.60;;;12.90;;
35847;SDS011;22332;51.954;20.118;2023-04-24T04:49:04;16.10;;;12.50;;
35847;SDS011;22332;51.954;20.118;2023-04-24T04:52:12;17.00;;;12.60;;
35847;SDS011;22332;51.954;20.118;2023-04-24T04:55:19;16.70;;;12.00;;
35847;SDS011;22332;51.954;20.118;2023-04-24T04:58:47;16.40;;;12.50;;
35847;SDS011;22332;51.954;20.118;2023-04-24T05:01:53;15.30;;;12.40;;
35847;SDS011;22332;51.954;20.118;2023-04-24T05:04:58;13.40;;;10.90;;
35847;SDS011;22332;51.954;20.118;2023-04-24T05:08:04;15.20;;;10.40;;
35847;SDS011;22332;51.954;20.118;2023-04-24T05:11:10;17.70;;;12.00;;
35847;SDS011;22332;51.954;20.118;2023-04-24T05:14:16;17.70;;;12.10;;
35847;SDS011;22332;51.954;20.118;2023-04-24T05:17:21;19.40;;;13.60;;
35847;SDS011;22332;51.954;20.118;2023-04-24T05:20:29;16.40;;;13.50;;
35847;SDS011;22332;51.954;20.118;2023-04-24T05:23:34;18.60;;;14.10;;
35847;SDS011;22332;51.954;20.118;2023-04-24T05:26:40;19.30;;;14.50;;
35847;SDS011;22332;51.954;20.118;2023-04-24T05:29:46;19.20;;;14.20;;
35847;SDS011;22332;51.954;20.118;2023-04-24T05:32:52;20.10;;;14.70;;
35847;SDS011;22332;51.954;20.118;2023-04-24T05:35:57;17.20;;;13.00;;
35847;SDS011;22332;51.954;20.118;2023-04-24T05:39:03;16.90;;;13.70;;
35847;SDS011;22332;51.954;20.118;2023-04-24T05:42:09;20.10;;;14.10;;
35847;SDS011;22332;51.954;20.118;2023-04-24T05:45:15;16.90;;;13.00;;
35847;SDS011;22332;51.954;20.118;2023-04-24T05:48:20;15.40;;;13.10;;
35847;SDS011;22332;51.954;20.118;2023-04-24T05:51:26;14.30;;;10.80;;
35847;SDS011;22332;51.954;20.118;2023-04-24T05:54:33;13.40;;;10.60;;
35847;SDS011;22332;51.954;20.118;2023-04-24T05:57:39;15.80;;;10.60;;
35847;SDS011;22332;51.954;20.118;2023-04-24T06:00:45;17.80;;;11.50;;
35847;SDS011;22332;51.954;20.118;2023-04-24T06:03:50;15.10;;;10.90;;
35847;SDS011;22332;51.954;20.118;2023-04-24T06:06:56;15.60;;;10.80;;
35847;SDS011;22332;51.954;20.118;2023-04-24T06:10:02;14.80;;;10.90;;
35847;SDS011;22332;51.954;20.118;2023-04-24T06:13:14;14.10;;;10.90;;
35847;SDS011;22332;51.954;20.118;2023-04-24T06:16:27;13.00;;;10.30;;
35847;SDS011;22332;51.954;20.118;2023-04-24T06:19:37;15.20;;;11.00;;
35847;SDS011;22332;51.954;20.118;2023-04-24T06:22:43;14.90;;;11.10;;
35847;SDS011;22332;51.954;20.118;2023-04-24T06:25:49;13.70;;;11.90;;
35847;SDS011;22332;51.954;20.118;2023-04-24T06:28:54;16.80;;;11.60;;
35847;SDS011;22332;51.954;20.118;2023-04-24T06:32:01;13.80;;;11.90;;
35847;SDS011;22332;51.954;20.118;2023-04-24T06:35:09;17.10;;;12.70;;
35847;SDS011;22332;51.954;20.118;2023-04-24T06:38:15;15.80;;;12.90;;
35847;SDS011;22332;51.954;20.118;2023-04-24T06:41:20;15.70;;;12.80;;
35847;SDS011;22332;51.954;20.118;2023-04-24T06:44:26;15.70;;;12.40;;
35847;SDS011;22332;51.954;20.118;2023-04-24T06:47:31;14.70;;;12.50;;
35847;SDS011;22332;51.954;20.118;2023-04-24T06:50:37;15.70;;;12.60;;
35847;SDS011;22332;51.954;20.118;2023-04-24T06:53:43;15.90;;;12.80;;
35847;SDS011;22332;51.954;20.118;2023-04-24T06:56:48;16.70;;;12.80;;
35847;SDS011;22332;51.954;20.118;2023-04-24T06:59:54;17.00;;;13.00;;
35847;SDS011;22332;51.954;20.118;2023-04-24T07:03:00;14.10;;;11.60;;
35847;SDS011;22332;51.954;20.118;2023-04-24T07:06:06;14.90;;;11.90;;
35847;SDS011;22332;51.954;20.118;2023-04-24T07:09:13;15.00;;;12.30;;
35847;SDS011;22332;51.954;20.118;2023-04-24T07:12:21;14.80;;;11.90;;
35847;SDS011;22332;51.954;20.118;2023-04-24T07:15:26;14.50;;;11.70;;
35847;SDS011;22332;51.954;20.118;2023-04-24T07:18:32;14.10;;;11.80;;
35847;SDS011;22332;51.954;20.118;2023-04-24T07:21:39;14.70;;;12.30;;
35847;SDS011;22332;51.954;20.118;2023-04-24T07:24:44;13.20;;;11.80;;
35847;SDS011;22332;51.954;20.118;2023-04-24T07:27:50;14.10;;;12.00;;
35847;SDS011;22332;51.954;20.118;2023-04-24T07:30:55;14.40;;;12.20;;
35847;SDS011;22332;51.954;20.118;2023-04-24T07:34:02;14.50;;;10.90;;
35847;SDS011;22332;51.954;20.118;2023-04-24T07:37:07;13.90;;;11.20;;
35847;SDS011;22332;51.954;20.118;2023-04-24T07:40:13;14.30;;;10.30;;
35847;SDS011;22332;51.954;20.118;2023-04-24T07:43:19;10.80;;;9.70;;
35847;SDS011;22332;51.954;20.118;2023-04-24T07:46:26;10.60;;;9.40;;
35847;SDS011;22332;51.954;20.118;2023-04-24T07:49:33;10.60;;;8.30;;
35847;SDS011;22332;51.954;20.118;2023-04-24T07:52:38;9.30;;;8.20;;
35847;SDS011;22332;51.954;20.118;2023-04-24T07:55:44;8.70;;;7.50;;
35847;SDS011;22332;51.954;20.118;2023-04-24T07:58:49;9.90;;;7.80;;
35847;SDS011;22332;51.954;20.118;2023-04-24T08:01:55;8.50;;;7.60;;
35847;SDS011;22332;51.954;20.118;2023-04-24T08:05:00;10.00;;;7.90;;
35847;SDS011;22332;51.954;20.118;2023-04-24T08:08:06;8.90;;;7.70;;
35847;SDS011;22332;51.954;20.118;2023-04-24T08:11:11;7.70;;;6.60;;
35847;SDS011;22332;51.954;20.118;2023-04-24T08:14:17;10.00;;;7.40;;
35847;SDS011;22332;51.954;20.118;2023-04-24T08:17:23;8.80;;;7.90;;
35847;SDS011;22332;51.954;20.118;2023-04-24T08:20:29;10.90;;;8.60;;
35847;SDS011;22332;51.954;20.118;2023-04-24T08:23:34;10.30;;;8.40;;
35847;SDS011;22332;51.954;20.118;2023-04-24T08:26:40;9.30;;;8.00;;
35847;SDS011;22332;51.954;20.118;2023-04-24T08:29:46;10.80;;;7.80;;
35847;SDS011;22332;51.954;20.118;2023-04-24T08:32:52;9.40;;;7.50;;
35847;SDS011;22332;51.954;20.118;2023-04-24T08:35:57;8.90;;;7.50;;
35847;SDS011;22332;51.954;20.118;2023-04-24T08:39:03;9.90;;;7.20;;
35847;SDS011;22332;51.954;20.118;2023-04-24T08:42:09;8.80;;;7.00;;
35847;SDS011;22332;51.954;20.118;2023-04-24T08:45:17;7.90;;;6.20;;
35847;SDS011;22332;51.954;20.118;2023-04-24T08:48:23;6.70;;;5.90;;
35847;SDS011;22332;51.954;20.118;2023-04-24T08:51:30;7.10;;;5.60;;
35847;SDS011;22332;51.954;20.118;2023-04-24T08:54:36;9.20;;;5.50;;
35847;SDS011;22332;51.954;20.118;2023-04-24T08:57:43;5.10;;;4.60;;
35847;SDS011;22332;51.954;20.118;2023-04-24T09:00:52;8.20;;;5.40;;
35847;SDS011;22332;51.954;20.118;2023-04-24T09:04:01;7.00;;;5.90;;
35847;SDS011;22332;51.954;20.118;2023-04-24T09:07:08;6.60;;;5.90;;
35847;SDS011;22332;51.954;20.118;2023-04-24T09:10:16;7.90;;;6.30;;
35847;SDS011;22332;51.954;20.118;2023-04-24T09:13:21;7.80;;;5.70;;
35847;SDS011;22332;51.954;20.118;2023-04-24T09:16:28;6.00;;;5.40;;
35847;SDS011;22332;51.954;20.118;2023-04-24T09:19:35;8.10;;;5.60;;
35847;SDS011;22332;51.954;20.118;2023-04-24T09:22:41;7.20;;;5.60;;
35847;SDS011;22332;51.954;20.118;2023-04-24T09:25:48;6.20;;;5.50;;
35847;SDS011;22332;51.954;20.118;2023-04-24T09:29:00;9.90;;;6.20;;
35847;SDS011;22332;51.954;20.118;2023-04-24T09:32:19;9.40;;;6.30;;
35847;SDS011;22332;51.954;20.118;2023-04-24T09:35:27;8.10;;;6.50;;
35847;SDS011;22332;51.954;20.118;2023-04-24T09:38:36;9.00;;;5.40;;
35847;SDS011;22332;51.954;20.118;2023-04-24T09:41:45;6.10;;;5.40;;
35847;SDS011;22332;51.954;20.118;2023-04-24T09:44:52;6.80;;;5.50;;
35847;SDS011;22332;51.954;20.118;2023-04-24T09:47:58;7.10;;;5.60;;
35847;SDS011;22332;51.954;20.118;2023-04-24T09:51:04;8.60;;;6.00;;
35847;SDS011;22332;51.954;20.118;2023-04-24T09:54:16;8.70;;;6.10;;
35847;SDS011;22332;51.954;20.118;2023-04-24T09:57:23;7.60;;;6.10;;
35847;SDS011;22332;51.954;20.118;2023-04-24T10:00:29;7.10;;;5.70;;
35847;SDS011;22332;51.954;20.118;2023-04-24T10:03:37;7.00;;;6.10;;
35847;SDS011;22332;51.954;20.118;2023-04-24T10:06:46;7.50;;;6.30;;
35847;SDS011;22332;51.954;20.118;2023-04-24T10:09:52;7.40;;;5.60;;
35847;SDS011;22332;51.954;20.118;2023-04-24T10:12:58;10.50;;;5.40;;
35847;SDS011;22332;51.954;20.118;2023-04-24T10:16:04;5.90;;;5.30;;
35847;SDS011;22332;51.954;20.118;2023-04-24T10:19:10;5.30;;;4.80;;
35847;SDS011;22332;51.954;20.118;2023-04-24T10:22:16;7.50;;;5.00;;
35847;SDS011;22332;51.954;20.118;2023-04-24T10:25:23;6.10;;;5.10;;
35847;SDS011;22332;51.954;20.118;2023-04-24T10:28:30;7.90;;;5.30;;
35847;SDS011;22332;51.954;20.118;2023-04-24T10:31:37;6.20;;;4.90;;
35847;SDS011;22332;51.954;20.118;2023-04-24T10:34:44;5.50;;;4.60;;
35847;SDS011;22332;51.954;20.118;2023-04-24T10:37:50;5.20;;;4.70;;
35847;SDS011;22332;51.954;20.118;2023-04-24T10:40:58;6.60;;;4.60;;
35847;SDS011;22332;51.954;20.118;2023-04-24T10:44:16;6.40;;;4.70;;
35847;SDS011;22332;51.954;20.118;2023-04-24T10:47:26;5.40;;;4.70;;
35847;SDS011;22332;51.954;20.118;2023-04-24T10:50:43;7.50;;;4.60;;
35847;SDS011;22332;51.954;20.118;2023-04-24T10:53:50;7.40;;;4.60;;
35847;SDS011;22332;51.954;20.118;2023-04-24T11:00:33;6.50;;;4.70;;
35847;SDS011;22332;51.954;20.118;2023-04-24T11:03:42;4.90;;;4.40;;
35847;SDS011;22332;51.954;20.118;2023-04-24T11:06:59;4.90;;;4.40;;
35847;SDS011;22332;51.954;20.118;2023-04-24T11:10:06;5.00;;;4.30;;
35847;SDS011;22332;51.954;20.118;2023-04-24T11:13:15;6.20;;;4.70;;
35847;SDS011;22332;51.954;20.118;2023-04-24T11:16:27;4.80;;;4.30;;
35847;SDS011;22332;51.954;20.118;2023-04-24T11:19:35;7.30;;;4.70;;
35847;SDS011;22332;51.954;20.118;2023-04-24T11:22:42;6.10;;;5.00;;
35847;SDS011;22332;51.954;20.118;2023-04-24T11:25:52;5.70;;;4.80;;
35847;SDS011;22332;51.954;20.118;2023-04-24T11:29:20;5.70;;;4.70;;
35847;SDS011;22332;51.954;20.118;2023-04-24T11:32:27;5.60;;;4.60;;
35847;SDS011;22332;51.954;20.118;2023-04-24T11:35:38;5.10;;;4.20;;
35847;SDS011;22332;51.954;20.118;2023-04-24T11:38:44;4.60;;;4.10;;
35847;SDS011;22332;51.954;20.118;2023-04-24T11:41:50;5.70;;;4.90;;
35847;SDS011;22332;51.954;20.118;2023-04-24T11:44:56;6.60;;;5.30;;
35847;SDS011;22332;51.954;20.118;2023-04-24T11:48:03;6.00;;;5.40;;
35847;SDS011;22332;51.954;20.118;2023-04-24T11:51:09;7.80;;;5.20;;
35847;SDS011;22332;51.954;20.118;2023-04-24T11:54:15;5.20;;;4.70;;
35847;SDS011;22332;51.954;20.118;2023-04-24T11:57:21;5.70;;;4.50;;
35847;SDS011;22332;51.954;20.118;2023-04-24T12:00:30;8.20;;;4.70;;
35847;SDS011;22332;51.954;20.118;2023-04-24T12:03:38;7.80;;;5.00;;
35847;SDS011;22332;51.954;20.118;2023-04-24T12:07:00;7.80;;;4.90;;
35847;SDS011;22332;51.954;20.118;2023-04-24T12:10:08;7.20;;;5.30;;
35847;SDS011;22332;51.954;20.118;2023-04-24T12:13:14;5.80;;;4.90;;
35847;SDS011;22332;51.954;20.118;2023-04-24T12:16:19;7.00;;;4.90;;
35847;SDS011;22332;51.954;20.118;2023-04-24T12:19:25;6.10;;;5.40;;
35847;SDS011;22332;51.954;20.118;2023-04-24T12:22:45;6.00;;;5.10;;
35847;SDS011;22332;51.954;20.118;2023-04-24T12:25:53;5.30;;;4.70;;
35847;SDS011;22332;51.954;20.118;2023-04-24T12:29:03;6.20;;;4.80;;
35847;SDS011;22332;51.954;20.118;2023-04-24T12:32:16;6.30;;;4.50;;
35847;SDS011;22332;51.954;20.118;2023-04-24T12:35:22;4.50;;;4.10;;
35847;SDS011;22332;51.954;20.118;2023-04-24T12:38:29;5.80;;;4.20;;
35847;SDS011;22332;51.954;20.118;2023-04-24T12:41:50;5.10;;;3.80;;
35847;SDS011;22332;51.954;20.118;2023-04-24T12:45:01;4.20;;;3.80;;
35847;SDS011;22332;51.954;20.118;2023-04-24T12:48:09;4.70;;;3.80;;
35847;SDS011;22332;51.954;20.118;2023-04-24T12:51:14;5.20;;;4.10;;
35847;SDS011;22332;51.954;20.118;2023-04-24T12:54:20;4.40;;;4.00;;
35847;SDS011;22332;51.954;20.118;2023-04-24T12:57:26;4.60;;;4.10;;
35847;SDS011;22332;51.954;20.118;2023-04-24T13:00:33;4.50;;;4.10;;
35847;SDS011;22332;51.954;20.118;2023-04-24T13:03:40;4.90;;;4.20;;
35847;SDS011;22332;51.954;20.118;2023-04-24T13:06:46;4.70;;;4.20;;
35847;SDS011;22332;51.954;20.118;2023-04-24T13:09:51;5.20;;;4.70;;
35847;SDS011;22332;51.954;20.118;2023-04-24T13:12:59;5.60;;;4.50;;
35847;SDS011;22332;51.954;20.118;2023-04-24T13:16:04;6.30;;;5.40;;
35847;SDS011;22332;51.954;20.118;2023-04-24T13:19:10;6.30;;;5.00;;
35847;SDS011;22332;51.954;20.118;2023-04-24T13:22:15;9.10;;;6.10;;
35847;SDS011;22332;51.954;20.118;2023-04-24T13:25:22;7.80;;;5.70;;
35847;SDS011;22332;51.954;20.118;2023-04-24T13:28:27;6.20;;;5.40;;
35847;SDS011;22332;51.954;20.118;2023-04-24T13:31:33;5.90;;;5.30;;
35847;SDS011;22332;51.954;20.118;2023-04-24T13:34:39;5.90;;;5.30;;
35847;SDS011;22332;51.954;20.118;2023-04-24T13:37:44;6.60;;;5.80;;
35847;SDS011;22332;51.954;20.118;2023-04-24T13:40:50;5.50;;;4.80;;
35847;SDS011;22332;51.954;20.118;2023-04-24T13:43:55;5.80;;;5.20;;
35847;SDS011;22332;51.954;20.118;2023-04-24T13:47:01;5.90;;;5.30;;
35847;SDS011;22332;51.954;20.118;2023-04-24T13:50:07;5.90;;;5.30;;
35847;SDS011;22332;51.954;20.118;2023-04-24T13:53:13;5.40;;;4.90;;
35847;SDS011;22332;51.954;20.118;2023-04-24T13:56:19;7.20;;;4.40;;
35847;SDS011;22332;51.954;20.118;2023-04-24T13:59:25;6.00;;;4.40;;
35847;SDS011;22332;51.954;20.118;2023-04-24T14:02:30;5.00;;;4.30;;
35847;SDS011;22332;51.954;20.118;2023-04-24T14:05:36;4.90;;;4.40;;
35847;SDS011;22332;51.954;20.118;2023-04-24T14:08:42;6.50;;;4.30;;
35847;SDS011;22332;51.954;20.118;2023-04-24T14:11:47;8.30;;;4.50;;
35847;SDS011;22332;51.954;20.118;2023-04-24T14:14:53;6.30;;;4.40;;
35847;SDS011;22332;51.954;20.118;2023-04-24T14:17:58;5.10;;;4.20;;
35847;SDS011;22332;51.954;20.118;2023-04-24T14:21:04;4.80;;;3.90;;
35847;SDS011;22332;51.954;20.118;2023-04-24T14:24:10;5.40;;;4.00;;
35847;SDS011;22332;51.954;20.118;2023-04-24T14:27:15;4.90;;;3.80;;
35847;SDS011;22332;51.954;20.118;2023-04-24T14:30:21;5.00;;;4.00;;
35847;SDS011;22332;51.954;20.118;2023-04-24T14:33:27;7.20;;;5.10;;
35847;SDS011;22332;51.954;20.118;2023-04-24T14:36:32;4.90;;;4.40;;
35847;SDS011;22332;51.954;20.118;2023-04-24T14:39:38;5.10;;;3.90;;
35847;SDS011;22332;51.954;20.118;2023-04-24T14:42:43;4.70;;;4.20;;
35847;SDS011;22332;51.954;20.118;2023-04-24T14:45:49;5.60;;;3.50;;
35847;SDS011;22332;51.954;20.118;2023-04-24T14:48:54;5.00;;;3.90;;
35847;SDS011;22332;51.954;20.118;2023-04-24T14:52:00;4.10;;;3.70;;
35847;SDS011;22332;51.954;20.118;2023-04-24T14:55:06;4.30;;;3.90;;
35847;SDS011;22332;51.954;20.118;2023-04-24T14:58:12;4.30;;;3.90;;
35847;SDS011;22332;51.954;20.118;2023-04-24T15:01:18;4.30;;;3.90;;
35847;SDS011;22332;51.954;20.118;2023-04-24T15:04:23;5.70;;;4.10;;
35847;SDS011;22332;51.954;20.118;2023-04-24T15:07:29;4.30;;;3.90;;
35847;SDS011;22332;51.954;20.118;2023-04-24T15:10:35;4.20;;;3.80;;
35847;SDS011;22332;51.954;20.118;2023-04-24T15:13:41;4.30;;;3.90;;
35847;SDS011;22332;51.954;20.118;2023-04-24T15:16:47;5.30;;;3.80;;
35847;SDS011;22332;51.954;20.118;2023-04-24T15:19:53;5.40;;;4.40;;
35847;SDS011;22332;51.954;20.118;2023-04-24T15:22:59;4.90;;;3.80;;
35847;SDS011;22332;51.954;20.118;2023-04-24T15:26:05;4.30;;;3.90;;
35847;SDS011;22332;51.954;20.118;2023-04-24T15:29:11;5.70;;;4.40;;
35847;SDS011;22332;51.954;20.118;2023-04-24T15:32:16;4.70;;;4.20;;
35847;SDS011;22332;51.954;20.118;2023-04-24T15:35:22;5.00;;;4.20;;
35847;SDS011;22332;51.954;20.118;2023-04-24T15:38:27;5.00;;;4.00;;
35847;SDS011;22332;51.954;20.118;2023-04-24T15:41:33;5.60;;;4.30;;
35847;SDS011;22332;51.954;20.118;2023-04-24T15:44:38;5.10;;;4.20;;
35847;SDS011;22332;51.954;20.118;2023-04-24T15:47:45;4.70;;;4.20;;
35847;SDS011;22332;51.954;20.118;2023-04-24T15:50:50;4.70;;;4.00;;
35847;SDS011;22332;51.954;20.118;2023-04-24T15:53:56;5.10;;;4.20;;
35847;SDS011;22332;51.954;20.118;2023-04-24T15:57:01;5.60;;;3.70;;
35847;SDS011;22332;51.954;20.118;2023-04-24T16:00:08;6.10;;;4.60;;
35847;SDS011;22332;51.954;20.118;2023-04-24T16:03:15;5.20;;;3.90;;
35847;SDS011;22332;51.954;20.118;2023-04-24T16:06:21;5.50;;;4.30;;
35847;SDS011;22332;51.954;20.118;2023-04-24T16:09:27;4.50;;;3.90;;
35847;SDS011;22332;51.954;20.118;2023-04-24T16:12:32;4.40;;;4.00;;
35847;SDS011;22332;51.954;20.118;2023-04-24T16:15:38;5.30;;;3.90;;
35847;SDS011;22332;51.954;20.118;2023-04-24T16:18:44;5.20;;;4.20;;
35847;SDS011;22332;51.954;20.118;2023-04-24T16:21:49;5.00;;;4.30;;
35847;SDS011;22332;51.954;20.118;2023-04-24T16:24:57;7.90;;;4.90;;
35847;SDS011;22332;51.954;20.118;2023-04-24T16:28:03;7.10;;;4.70;;
35847;SDS011;22332;51.954;20.118;2023-04-24T16:31:08;6.60;;;5.20;;
35847;SDS011;22332;51.954;20.118;2023-04-24T16:34:14;7.00;;;5.00;;
35847;SDS011;22332;51.954;20.118;2023-04-24T16:37:19;6.00;;;4.40;;
35847;SDS011;22332;51.954;20.118;2023-04-24T16:40:25;6.40;;;4.70;;
35847;SDS011;22332;51.954;20.118;2023-04-24T16:43:30;6.10;;;5.20;;
35847;SDS011;22332;51.954;20.118;2023-04-24T16:46:36;7.90;;;5.30;;
35847;SDS011;22332;51.954;20.118;2023-04-24T16:49:43;8.30;;;6.00;;
35847;SDS011;22332;51.954;20.118;2023-04-24T16:52:51;9.30;;;6.40;;
35847;SDS011;22332;51.954;20.118;2023-04-24T16:55:57;9.30;;;6.80;;
35847;SDS011;22332;51.954;20.118;2023-04-24T16:59:02;8.90;;;6.70;;
35847;SDS011;22332;51.954;20.118;2023-04-24T17:02:09;10.30;;;8.10;;
35847;SDS011;22332;51.954;20.118;2023-04-24T17:05:14;13.20;;;9.20;;
35847;SDS011;22332;51.954;20.118;2023-04-24T17:08:22;16.90;;;10.90;;
35847;SDS011;22332;51.954;20.118;2023-04-24T17:11:32;15.50;;;11.00;;
35847;SDS011;22332;51.954;20.118;2023-04-24T17:14:38;17.30;;;11.70;;
35847;SDS011;22332;51.954;20.118;2023-04-24T17:17:43;20.40;;;11.70;;
35847;SDS011;22332;51.954;20.118;2023-04-24T17:20:49;18.00;;;12.90;;
35847;SDS011;22332;51.954;20.118;2023-04-24T17:23:54;17.30;;;11.80;;
35847;SDS011;22332;51.954;20.118;2023-04-24T17:27:00;14.40;;;10.80;;
35847;SDS011;22332;51.954;20.118;2023-04-24T17:30:06;14.70;;;9.50;;
35847;SDS011;22332;51.954;20.118;2023-04-24T17:33:13;11.50;;;8.30;;
35847;SDS011;22332;51.954;20.118;2023-04-24T17:36:19;10.50;;;8.30;;
35847;SDS011;22332;51.954;20.118;2023-04-24T17:39:24;14.40;;;10.10;;
35847;SDS011;22332;51.954;20.118;2023-04-24T17:42:30;14.00;;;10.40;;
35847;SDS011;22332;51.954;20.118;2023-04-24T17:45:38;12.00;;;8.60;;
35847;SDS011;22332;51.954;20.118;2023-04-24T17:48:43;10.20;;;7.60;;
35847;SDS011;22332;51.954;20.118;2023-04-24T17:51:49;11.20;;;6.90;;
35847;SDS011;22332;51.954;20.118;2023-04-24T17:54:55;8.20;;;6.50;;
35847;SDS011;22332;51.954;20.118;2023-04-24T17:58:01;8.40;;;7.00;;
35847;SDS011;22332;51.954;20.118;2023-04-24T18:01:06;9.00;;;6.90;;
35847;SDS011;22332;51.954;20.118;2023-04-24T18:04:14;9.30;;;6.50;;
35847;SDS011;22332;51.954;20.118;2023-04-24T18:07:20;8.60;;;6.90;;
35847;SDS011;22332;51.954;20.118;2023-04-24T18:10:26;9.40;;;7.10;;
35847;SDS011;22332;51.954;20.118;2023-04-24T18:13:33;8.80;;;7.10;;
35847;SDS011;22332;51.954;20.118;2023-04-24T18:16:39;10.00;;;7.80;;
35847;SDS011;22332;51.954;20.118;2023-04-24T18:19:44;10.00;;;7.60;;